Terminal Aerodrome Forecast
Issued by NWS

Home | Current Version | Previous Version | Text Only | Print | Product List | Glossary On
Versions: 1 2 3 4 5 6 7 8 9 10 11 12 13 14 15
000
FTUS43 KILX 220500
TAFDEC
TAF
KDEC 220533Z 2206/2306 15010KT P6SM BKN040
     FM221300 14012KT P6SM OVC030
     FM221500 14012KT 3SM -RA BR OVC008
     FM221800 15015KT 1SM -RA BR OVC005=

USA.gov is the U.S. government's official web portal to all federal, state and local government web resources and services.